sensor_id;sensor_type;location;lat;lon;timestamp;pressure;altitude;pressure_sealevel;temperature;humidity
55687;BME280;41911;52.362;4.978;2023-04-23T00:00:29;100752.49;;;9.36;51.44
55687;BME280;41911;52.362;4.978;2023-04-23T00:01:01;100749.99;;;9.25;51.49
55687;BME280;41911;52.362;4.978;2023-04-23T00:01:33;100745.22;;;9.22;51.47
55687;BME280;41911;52.362;4.978;2023-04-23T00:02:08;100745.15;;;9.27;51.54
55687;BME280;41911;52.362;4.978;2023-04-23T00:02:45;100745.39;;;9.13;51.60
55687;BME280;41911;52.362;4.978;2023-04-23T00:03:17;100745.56;;;9.46;51.59
55687;BME280;41911;52.362;4.978;2023-04-23T00:03:50;100745.63;;;9.15;51.63
55687;BME280;41911;52.362;4.978;2023-04-23T00:04:22;100745.41;;;9.12;51.50
55687;BME280;41911;52.362;4.978;2023-04-23T00:04:56;100742.87;;;8.83;51.67
55687;BME280;41911;52.362;4.978;2023-04-23T00:05:32;100742.85;;;9.58;51.46
55687;BME280;41911;52.362;4.978;2023-04-23T00:06:05;100742.92;;;9.05;51.14
55687;BME280;41911;52.362;4.978;2023-04-23T00:06:37;100741.92;;;9.39;51.18
55687;BME280;41911;52.362;4.978;2023-04-23T00:07:08;100741.60;;;9.22;51.29
55687;BME280;41911;52.362;4.978;2023-04-23T00:07:39;100740.60;;;9.32;51.33
55687;BME280;41911;52.362;4.978;2023-04-23T00:08:11;100740.02;;;8.86;51.39
55687;BME280;41911;52.362;4.978;2023-04-23T00:08:43;100737.59;;;9.19;51.54
55687;BME280;41911;52.362;4.978;2023-04-23T00:09:15;100737.26;;;8.88;51.11
55687;BME280;41911;52.362;4.978;2023-04-23T00:09:46;100735.76;;;9.17;51.49
55687;BME280;41911;52.362;4.978;2023-04-23T00:10:21;100734.91;;;9.13;51.53
55687;BME280;41911;52.362;4.978;2023-04-23T00:10:53;100734.48;;;9.22;51.35
55687;BME280;41911;52.362;4.978;2023-04-23T00:11:24;100734.23;;;9.24;51.21
55687;BME280;41911;52.362;4.978;2023-04-23T00:11:56;100733.68;;;9.22;51.55
55687;BME280;41911;52.362;4.978;2023-04-23T00:12:28;100733.83;;;9.29;51.40
55687;BME280;41911;52.362;4.978;2023-04-23T00:13:01;100734.32;;;9.43;51.42
55687;BME280;41911;52.362;4.978;2023-04-23T00:13:33;100733.21;;;9.07;51.45
55687;BME280;41911;52.362;4.978;2023-04-23T00:14:05;100732.71;;;9.13;51.52
55687;BME280;41911;52.362;4.978;2023-04-23T00:14:36;100732.03;;;9.18;51.42
55687;BME280;41911;52.362;4.978;2023-04-23T00:15:09;100729.64;;;9.13;51.52
55687;BME280;41911;52.362;4.978;2023-04-23T00:15:41;100729.28;;;9.35;51.33
55687;BME280;41911;52.362;4.978;2023-04-23T00:16:13;100728.30;;;9.02;51.43
55687;BME280;41911;52.362;4.978;2023-04-23T00:16:45;100727.30;;;9.12;51.51
55687;BME280;41911;52.362;4.978;2023-04-23T00:17:16;100727.25;;;8.77;51.47
55687;BME280;41911;52.362;4.978;2023-04-23T00:17:47;100727.55;;;9.41;51.52
55687;BME280;41911;52.362;4.978;2023-04-23T00:18:18;100727.70;;;9.48;51.29
55687;BME280;41911;52.362;4.978;2023-04-23T00:18:49;100725.31;;;9.40;51.39
55687;BME280;41911;52.362;4.978;2023-04-23T00:19:20;100726.77;;;9.40;51.45
55687;BME280;41911;52.362;4.978;2023-04-23T00:19:51;100726.53;;;8.96;51.42
55687;BME280;41911;52.362;4.978;2023-04-23T00:20:22;100724.67;;;9.32;51.40
55687;BME280;41911;52.362;4.978;2023-04-23T00:20:53;100725.71;;;9.36;51.46
55687;BME280;41911;52.362;4.978;2023-04-23T00:21:24;100725.20;;;8.75;51.52
55687;BME280;41911;52.362;4.978;2023-04-23T00:21:55;100726.19;;;9.40;51.49
55687;BME280;41911;52.362;4.978;2023-04-23T00:22:26;100724.71;;;9.02;51.47
55687;BME280;41911;52.362;4.978;2023-04-23T00:22:57;100724.66;;;8.80;51.55
55687;BME280;41911;52.362;4.978;2023-04-23T00:23:28;100723.13;;;9.23;51.46
55687;BME280;41911;52.362;4.978;2023-04-23T00:23:59;100723.75;;;9.28;51.47
55687;BME280;41911;52.362;4.978;2023-04-23T00:24:30;100723.19;;;8.93;51.41
55687;BME280;41911;52.362;4.978;2023-04-23T00:25:01;100723.43;;;9.28;51.50
55687;BME280;41911;52.362;4.978;2023-04-23T00:25:33;100723.21;;;9.27;51.54
55687;BME280;41911;52.362;4.978;2023-04-23T00:26:04;100723.92;;;9.21;51.46
55687;BME280;41911;52.362;4.978;2023-04-23T00:26:35;100724.45;;;9.14;51.50
55687;BME280;41911;52.362;4.978;2023-04-23T00:27:06;100724.45;;;8.89;51.71
55687;BME280;41911;52.362;4.978;2023-04-23T00:27:38;100725.48;;;9.24;51.66
55687;BME280;41911;52.362;4.978;2023-04-23T00:28:09;100725.58;;;9.25;51.52
55687;BME280;41911;52.362;4.978;2023-04-23T00:28:40;100727.20;;;8.94;51.44
55687;BME280;41911;52.362;4.978;2023-04-23T00:29:10;100726.86;;;9.25;51.42
55687;BME280;41911;52.362;4.978;2023-04-23T00:29:42;100728.79;;;9.29;51.32
55687;BME280;41911;52.362;4.978;2023-04-23T00:30:13;100730.37;;;8.92;51.63
55687;BME280;41911;52.362;4.978;2023-04-23T00:30:44;100729.44;;;9.20;51.52
55687;BME280;41911;52.362;4.978;2023-04-23T00:31:16;100728.66;;;9.16;51.58
55687;BME280;41911;52.362;4.978;2023-04-23T00:31:47;100726.01;;;9.21;51.54
55687;BME280;41911;52.362;4.978;2023-04-23T00:32:18;100729.10;;;9.23;51.58
55687;BME280;41911;52.362;4.978;2023-04-23T00:32:49;100728.19;;;8.65;51.54
55687;BME280;41911;52.362;4.978;2023-04-23T00:33:20;100726.91;;;9.24;51.56
55687;BME280;41911;52.362;4.978;2023-04-23T00:33:51;100726.81;;;9.21;51.26
55687;BME280;41911;52.362;4.978;2023-04-23T00:34:22;100726.53;;;9.19;51.51
55687;BME280;41911;52.362;4.978;2023-04-23T00:34:53;100725.67;;;9.19;51.38
55687;BME280;41911;52.362;4.978;2023-04-23T00:35:24;100723.77;;;9.24;51.33
55687;BME280;41911;52.362;4.978;2023-04-23T00:35:55;100723.53;;;8.96;51.36
55687;BME280;41911;52.362;4.978;2023-04-23T00:36:26;100722.80;;;9.24;51.24
55687;BME280;41911;52.362;4.978;2023-04-23T00:36:57;100720.18;;;9.23;51.52
55687;BME280;41911;52.362;4.978;2023-04-23T00:37:28;100720.06;;;8.50;51.53
55687;BME280;41911;52.362;4.978;2023-04-23T00:38:01;100719.36;;;8.70;51.62
55687;BME280;41911;52.362;4.978;2023-04-23T00:38:33;100720.01;;;9.22;51.47
55687;BME280;41911;52.362;4.978;2023-04-23T00:39:04;100717.63;;;9.28;51.32
55687;BME280;41911;52.362;4.978;2023-04-23T00:39:35;100720.44;;;9.30;51.15
55687;BME280;41911;52.362;4.978;2023-04-23T00:40:07;100717.26;;;9.23;51.29
55687;BME280;41911;52.362;4.978;2023-04-23T00:40:39;100719.16;;;8.95;51.42
55687;BME280;41911;52.362;4.978;2023-04-23T00:41:10;100719.44;;;9.18;51.56
55687;BME280;41911;52.362;4.978;2023-04-23T00:41:42;100717.41;;;9.05;51.59
55687;BME280;41911;52.362;4.978;2023-04-23T00:42:13;100714.98;;;8.79;51.72
55687;BME280;41911;52.362;4.978;2023-04-23T00:42:44;100714.29;;;9.11;51.45
55687;BME280;41911;52.362;4.978;2023-04-23T00:43:16;100715.24;;;9.08;51.61
55687;BME280;41911;52.362;4.978;2023-04-23T00:43:48;100713.26;;;9.22;51.53
55687;BME280;41911;52.362;4.978;2023-04-23T00:44:20;100712.01;;;9.20;51.51
55687;BME280;41911;52.362;4.978;2023-04-23T00:44:51;100711.22;;;9.27;51.37
55687;BME280;41911;52.362;4.978;2023-04-23T00:45:22;100710.50;;;8.90;51.47
55687;BME280;41911;52.362;4.978;2023-04-23T00:45:53;100706.83;;;8.85;51.45
55687;BME280;41911;52.362;4.978;2023-04-23T00:46:25;100708.27;;;9.25;51.28
55687;BME280;41911;52.362;4.978;2023-04-23T00:46:56;100707.33;;;8.95;51.38
55687;BME280;41911;52.362;4.978;2023-04-23T00:47:28;100707.57;;;9.23;51.32
55687;BME280;41911;52.362;4.978;2023-04-23T00:47:59;100705.02;;;8.90;51.38
55687;BME280;41911;52.362;4.978;2023-04-23T00:48:31;100706.66;;;9.20;51.40
55687;BME280;41911;52.362;4.978;2023-04-23T00:49:03;100706.70;;;8.92;51.44
55687;BME280;41911;52.362;4.978;2023-04-23T00:49:34;100703.91;;;9.07;51.65
55687;BME280;41911;52.362;4.978;2023-04-23T00:50:07;100705.58;;;9.04;51.51
55687;BME280;41911;52.362;4.978;2023-04-23T00:50:38;100706.19;;;9.05;51.59
55687;BME280;41911;52.362;4.978;2023-04-23T00:51:10;100706.26;;;9.16;51.52
55687;BME280;41911;52.362;4.978;2023-04-23T00:51:41;100705.06;;;8.77;51.66
55687;BME280;41911;52.362;4.978;2023-04-23T00:52:12;100704.44;;;9.05;51.68
55687;BME280;41911;52.362;4.978;2023-04-23T00:52:43;100706.48;;;8.99;51.51
55687;BME280;41911;52.362;4.978;2023-04-23T00:53:14;100703.21;;;8.86;51.73
55687;BME280;41911;52.362;4.978;2023-04-23T00:53:45;100704.31;;;8.65;51.73
55687;BME280;41911;52.362;4.978;2023-04-23T00:54:16;100704.05;;;8.76;51.67
55687;BME280;41911;52.362;4.978;2023-04-23T00:54:47;100702.91;;;8.90;51.87
55687;BME280;41911;52.362;4.978;2023-04-23T00:55:18;100704.82;;;8.92;51.88
55687;BME280;41911;52.362;4.978;2023-04-23T00:55:49;100703.30;;;8.61;51.89
55687;BME280;41911;52.362;4.978;2023-04-23T00:56:21;100702.46;;;8.93;52.00
55687;BME280;41911;52.362;4.978;2023-04-23T00:56:52;100704.46;;;8.98;51.87
55687;BME280;41911;52.362;4.978;2023-04-23T00:57:25;100701.28;;;9.00;51.85
55687;BME280;41911;52.362;4.978;2023-04-23T00:57:56;100701.17;;;9.01;51.77
55687;BME280;41911;52.362;4.978;2023-04-23T00:58:27;100700.58;;;8.71;51.86
55687;BME280;41911;52.362;4.978;2023-04-23T00:58:59;100700.67;;;8.99;51.80
55687;BME280;41911;52.362;4.978;2023-04-23T00:59:30;100699.21;;;9.07;51.74
55687;BME280;41911;52.362;4.978;2023-04-23T01:00:02;100696.89;;;9.04;51.84
55687;BME280;41911;52.362;4.978;2023-04-23T01:00:36;100695.43;;;9.03;51.72
55687;BME280;41911;52.362;4.978;2023-04-23T01:01:10;100693.56;;;9.22;51.60
55687;BME280;41911;52.362;4.978;2023-04-23T01:01:41;100694.47;;;9.18;51.59
55687;BME280;41911;52.362;4.978;2023-04-23T01:02:13;100694.81;;;9.25;51.56
55687;BME280;41911;52.362;4.978;2023-04-23T01:02:44;100692.83;;;9.24;51.50
55687;BME280;41911;52.362;4.978;2023-04-23T01:03:17;100694.34;;;8.98;51.47
55687;BME280;41911;52.362;4.978;2023-04-23T01:03:50;100695.38;;;9.07;51.47
55687;BME280;41911;52.362;4.978;2023-04-23T01:04:21;100696.25;;;8.95;51.42
55687;BME280;41911;52.362;4.978;2023-04-23T01:04:54;100696.64;;;9.36;51.43
55687;BME280;41911;52.362;4.978;2023-04-23T01:05:27;100694.41;;;9.18;51.71
55687;BME280;41911;52.362;4.978;2023-04-23T01:05:58;100694.53;;;9.05;51.47
55687;BME280;41911;52.362;4.978;2023-04-23T01:06:29;100693.33;;;9.28;51.55
55687;BME280;41911;52.362;4.978;2023-04-23T01:07:00;100693.01;;;9.02;51.75
55687;BME280;41911;52.362;4.978;2023-04-23T01:07:33;100694.43;;;8.92;51.96
55687;BME280;41911;52.362;4.978;2023-04-23T01:08:05;100692.50;;;9.24;51.88
55687;BME280;41911;52.362;4.978;2023-04-23T01:08:37;100690.63;;;8.96;51.88
55687;BME280;41911;52.362;4.978;2023-04-23T01:09:10;100687.98;;;9.42;51.78
55687;BME280;41911;52.362;4.978;2023-04-23T01:09:42;100689.46;;;9.21;51.68
55687;BME280;41911;52.362;4.978;2023-04-23T01:10:13;100687.98;;;9.44;51.89
55687;BME280;41911;52.362;4.978;2023-04-23T01:10:46;100687.10;;;9.52;51.84
55687;BME280;41911;52.362;4.978;2023-04-23T01:11:18;100686.31;;;9.24;51.79
55687;BME280;41911;52.362;4.978;2023-04-23T01:11:49;100685.20;;;9.29;51.77
55687;BME280;41911;52.362;4.978;2023-04-23T01:12:21;100686.95;;;9.68;51.68
55687;BME280;41911;52.362;4.978;2023-04-23T01:12:52;100684.49;;;9.33;51.82
55687;BME280;41911;52.362;4.978;2023-04-23T01:13:24;100683.14;;;9.30;51.57
55687;BME280;41911;52.362;4.978;2023-04-23T01:13:55;100683.27;;;9.37;51.66
55687;BME280;41911;52.362;4.978;2023-04-23T01:14:26;100684.75;;;9.31;51.59
55687;BME280;41911;52.362;4.978;2023-04-23T01:14:59;100684.25;;;9.13;51.59
55687;BME280;41911;52.362;4.978;2023-04-23T01:15:30;100683.79;;;9.74;51.73
55687;BME280;41911;52.362;4.978;2023-04-23T01:16:01;100685.62;;;9.39;51.55
55687;BME280;41911;52.362;4.978;2023-04-23T01:16:32;100683.44;;;9.18;51.42
55687;BME280;41911;52.362;4.978;2023-04-23T01:17:03;100683.87;;;9.56;51.47
55687;BME280;41911;52.362;4.978;2023-04-23T01:17:34;100684.78;;;9.39;51.57
55687;BME280;41911;52.362;4.978;2023-04-23T01:18:05;100682.26;;;9.79;51.68
55687;BME280;41911;52.362;4.978;2023-04-23T01:18:37;100681.41;;;9.54;51.58
55687;BME280;41911;52.362;4.978;2023-04-23T01:19:09;100682.20;;;9.26;51.46
55687;BME280;41911;52.362;4.978;2023-04-23T01:19:40;100681.70;;;9.24;51.41
55687;BME280;41911;52.362;4.978;2023-04-23T01:20:12;100680.51;;;9.24;51.24
55687;BME280;41911;52.362;4.978;2023-04-23T01:20:43;100681.10;;;9.61;51.12
55687;BME280;41911;52.362;4.978;2023-04-23T01:21:16;100678.94;;;9.95;51.00
55687;BME280;41911;52.362;4.978;2023-04-23T01:21:49;100678.76;;;9.23;51.36
55687;BME280;41911;52.362;4.978;2023-04-23T01:22:20;100678.33;;;9.48;51.40
55687;BME280;41911;52.362;4.978;2023-04-23T01:22:51;100673.70;;;9.91;51.22
55687;BME280;41911;52.362;4.978;2023-04-23T01:23:22;100673.14;;;9.34;51.14
55687;BME280;41911;52.362;4.978;2023-04-23T01:23:53;100674.51;;;9.35;51.26
55687;BME280;41911;52.362;4.978;2023-04-23T01:24:24;100671.54;;;9.42;51.22
55687;BME280;41911;52.362;4.978;2023-04-23T01:24:55;100670.83;;;9.38;51.19
55687;BME280;41911;52.362;4.978;2023-04-23T01:25:27;100670.69;;;9.50;51.16
55687;BME280;41911;52.362;4.978;2023-04-23T01:25:59;100670.27;;;9.41;51.21
55687;BME280;41911;52.362;4.978;2023-04-23T01:26:30;100669.87;;;9.46;51.10
55687;BME280;41911;52.362;4.978;2023-04-23T01:27:01;100670.93;;;9.55;50.90
55687;BME280;41911;52.362;4.978;2023-04-23T01:27:32;100671.60;;;9.63;50.98
55687;BME280;41911;52.362;4.978;2023-04-23T01:28:04;100671.93;;;9.64;50.85
55687;BME280;41911;52.362;4.978;2023-04-23T01:28:36;100670.30;;;9.58;51.01
55687;BME280;41911;52.362;4.978;2023-04-23T01:29:08;100671.44;;;9.53;51.01
55687;BME280;41911;52.362;4.978;2023-04-23T01:29:40;100670.59;;;9.51;50.95
55687;BME280;41911;52.362;4.978;2023-04-23T01:30:12;100671.85;;;9.64;50.90
55687;BME280;41911;52.362;4.978;2023-04-23T01:30:44;100669.82;;;9.49;50.81
55687;BME280;41911;52.362;4.978;2023-04-23T01:31:16;100667.42;;;9.67;51.10
55687;BME280;41911;52.362;4.978;2023-04-23T01:31:48;100668.67;;;9.51;50.84
55687;BME280;41911;52.362;4.978;2023-04-23T01:32:20;100666.97;;;9.60;50.66
55687;BME280;41911;52.362;4.978;2023-04-23T01:32:51;100668.44;;;9.82;50.78
55687;BME280;41911;52.362;4.978;2023-04-23T01:33:22;100667.51;;;9.26;50.95
55687;BME280;41911;52.362;4.978;2023-04-23T01:33:54;100667.96;;;9.85;50.87
55687;BME280;41911;52.362;4.978;2023-04-23T01:34:25;100668.31;;;9.61;50.82
55687;BME280;41911;52.362;4.978;2023-04-23T01:34:56;100665.11;;;9.88;50.83
55687;BME280;41911;52.362;4.978;2023-04-23T01:35:28;100666.80;;;9.56;50.85
55687;BME280;41911;52.362;4.978;2023-04-23T01:36:01;100665.91;;;9.53;50.93
55687;BME280;41911;52.362;4.978;2023-04-23T01:36:33;100667.51;;;9.56;50.93
55687;BME280;41911;52.362;4.978;2023-04-23T01:37:05;100664.90;;;9.62;50.94
55687;BME280;41911;52.362;4.978;2023-04-23T01:37:37;100663.17;;;9.56;50.88
55687;BME280;41911;52.362;4.978;2023-04-23T01:38:10;100662.44;;;9.58;50.74
55687;BME280;41911;52.362;4.978;2023-04-23T01:38:41;100661.11;;;9.51;50.67
55687;BME280;41911;52.362;4.978;2023-04-23T01:39:12;100658.86;;;9.52;50.72
55687;BME280;41911;52.362;4.978;2023-04-23T01:39:43;100657.41;;;9.55;50.77
55687;BME280;41911;52.362;4.978;2023-04-23T01:40:14;100655.08;;;9.19;50.62
55687;BME280;41911;52.362;4.978;2023-04-23T01:40:45;100655.58;;;9.38;50.79
55687;BME280;41911;52.362;4.978;2023-04-23T01:41:16;100657.72;;;9.43;50.26
55687;BME280;41911;52.362;4.978;2023-04-23T01:41:47;100656.46;;;9.37;50.41
55687;BME280;41911;52.362;4.978;2023-04-23T01:42:18;100655.99;;;9.45;50.47
55687;BME280;41911;52.362;4.978;2023-04-23T01:42:50;100655.34;;;9.35;50.44
55687;BME280;41911;52.362;4.978;2023-04-23T01:43:24;100654.39;;;9.49;50.44
55687;BME280;41911;52.362;4.978;2023-04-23T01:43:55;100654.70;;;9.37;50.41
55687;BME280;41911;52.362;4.978;2023-04-23T01:44:27;100653.46;;;9.14;50.35
55687;BME280;41911;52.362;4.978;2023-04-23T01:44:58;100654.44;;;9.39;50.33
55687;BME280;41911;52.362;4.978;2023-04-23T01:45:29;100652.37;;;9.35;50.37
55687;BME280;41911;52.362;4.978;2023-04-23T01:46:01;100650.05;;;9.38;50.29
55687;BME280;41911;52.362;4.978;2023-04-23T01:46:32;100650.77;;;9.42;50.14
55687;BME280;41911;52.362;4.978;2023-04-23T01:47:03;100650.70;;;9.31;50.38
55687;BME280;41911;52.362;4.978;2023-04-23T01:47:34;100652.40;;;9.26;50.42
55687;BME280;41911;52.362;4.978;2023-04-23T01:48:05;100650.48;;;9.29;50.45
55687;BME280;41911;52.362;4.978;2023-04-23T01:48:37;100650.72;;;9.22;50.37
55687;BME280;41911;52.362;4.978;2023-04-23T01:49:08;100651.05;;;9.22;50.31
55687;BME280;41911;52.362;4.978;2023-04-23T01:49:39;100650.66;;;9.17;50.45
55687;BME280;41911;52.362;4.978;2023-04-23T01:50:10;100654.17;;;9.40;50.59
55687;BME280;41911;52.362;4.978;2023-04-23T01:50:41;100653.38;;;9.30;50.76
55687;BME280;41911;52.362;4.978;2023-04-23T01:51:12;100651.87;;;9.06;50.75
55687;BME280;41911;52.362;4.978;2023-04-23T01:51:43;100651.80;;;9.27;50.83
55687;BME280;41911;52.362;4.978;2023-04-23T01:52:14;100649.30;;;9.18;51.14
55687;BME280;41911;52.362;4.978;2023-04-23T01:52:45;100651.25;;;9.32;51.04
55687;BME280;41911;52.362;4.978;2023-04-23T01:53:16;100652.74;;;9.22;51.00
55687;BME280;41911;52.362;4.978;2023-04-23T01:53:47;100652.15;;;8.91;50.88
55687;BME280;41911;52.362;4.978;2023-04-23T01:54:18;100650.59;;;8.88;50.91
55687;BME280;41911;52.362;4.978;2023-04-23T01:54:49;100649.77;;;9.12;51.13
55687;BME280;41911;52.362;4.978;2023-04-23T01:55:21;100650.06;;;9.29;51.16
55687;BME280;41911;52.362;4.978;2023-04-23T01:55:53;100648.53;;;8.95;51.13
55687;BME280;41911;52.362;4.978;2023-04-23T01:56:26;100647.85;;;8.91;51.20
55687;BME280;41911;52.362;4.978;2023-04-23T01:56:57;100647.07;;;9.54;51.15
55687;BME280;41911;52.362;4.978;2023-04-23T01:57:28;100646.87;;;9.52;51.08
55687;BME280;41911;52.362;4.978;2023-04-23T01:58:02;100645.51;;;9.27;51.14
55687;BME280;41911;52.362;4.978;2023-04-23T01:58:33;100644.99;;;8.84;51.29
55687;BME280;41911;52.362;4.978;2023-04-23T01:59:03;100643.63;;;9.55;51.31
55687;BME280;41911;52.362;4.978;2023-04-23T01:59:34;100643.22;;;9.53;51.28
55687;BME280;41911;52.362;4.978;2023-04-23T02:00:08;100642.19;;;9.53;51.14
55687;BME280;41911;52.362;4.978;2023-04-23T02:00:39;100641.50;;;9.26;51.07
55687;BME280;41911;52.362;4.978;2023-04-23T02:01:10;100640.17;;;9.26;51.29
55687;BME280;41911;52.362;4.978;2023-04-23T02:01:42;100640.62;;;9.27;51.04
55687;BME280;41911;52.362;4.978;2023-04-23T02:02:13;100640.24;;;9.30;51.11
55687;BME280;41911;52.362;4.978;2023-04-23T02:02:44;100640.91;;;9.25;51.21
55687;BME280;41911;52.362;4.978;2023-04-23T02:03:15;100640.77;;;9.27;51.08
55687;BME280;41911;52.362;4.978;2023-04-23T02:03:48;100641.12;;;9.35;51.22
55687;BME280;41911;52.362;4.978;2023-04-23T02:04:19;100639.19;;;9.22;51.25
55687;BME280;41911;52.362;4.978;2023-04-23T02:04:50;100638.59;;;9.47;51.24
55687;BME280;41911;52.362;4.978;2023-04-23T02:05:24;100636.64;;;9.27;51.20
55687;BME280;41911;52.362;4.978;2023-04-23T02:06:00;100635.37;;;9.40;51.05
55687;BME280;41911;52.362;4.978;2023-04-23T02:06:31;100633.80;;;9.57;51.33
55687;BME280;41911;52.362;4.978;2023-04-23T02:07:02;100632.98;;;9.22;51.18
55687;BME280;41911;52.362;4.978;2023-04-23T02:07:33;100633.87;;;9.42;51.19
55687;BME280;41911;52.362;4.978;2023-04-23T02:08:04;100635.78;;;9.37;51.32
55687;BME280;41911;52.362;4.978;2023-04-23T02:08:35;100635.62;;;9.23;51.72
55687;BME280;41911;52.362;4.978;2023-04-23T02:09:09;100636.03;;;9.03;51.69
55687;BME280;41911;52.362;4.978;2023-04-23T02:09:39;100638.84;;;9.07;51.64
55687;BME280;41911;52.362;4.978;2023-04-23T02:10:11;100638.22;;;9.28;51.59
55687;BME280;41911;52.362;4.978;2023-04-23T02:10:42;100637.75;;;9.15;51.70
55687;BME280;41911;52.362;4.978;2023-04-23T02:11:13;100637.52;;;9.10;51.59
55687;BME280;41911;52.362;4.978;2023-04-23T02:11:44;100636.46;;;9.42;51.59
55687;BME280;41911;52.362;4.978;2023-04-23T02:12:15;100637.44;;;9.22;51.67
55687;BME280;41911;52.362;4.978;2023-04-23T02:12:46;100635.21;;;9.28;51.64
55687;BME280;41911;52.362;4.978;2023-04-23T02:13:17;100634.91;;;9.04;51.62
55687;BME280;41911;52.362;4.978;2023-04-23T02:13:48;100635.64;;;9.10;51.51
55687;BME280;41911;52.362;4.978;2023-04-23T02:14:19;100632.88;;;9.19;51.44
55687;BME280;41911;52.362;4.978;2023-04-23T02:14:50;100632.98;;;9.18;51.91
55687;BME280;41911;52.362;4.978;2023-04-23T02:15:21;100633.59;;;8.84;51.99
55687;BME280;41911;52.362;4.978;2023-04-23T02:15:52;100630.64;;;8.86;52.15
55687;BME280;41911;52.362;4.978;2023-04-23T02:16:23;100632.82;;;8.88;52.12
55687;BME280;41911;52.362;4.978;2023-04-23T02:21:55;100627.92;;;8.99;51.49
55687;BME280;41911;52.362;4.978;2023-04-23T02:22:26;100626.46;;;9.49;51.30
55687;BME280;41911;52.362;4.978;2023-04-23T02:22:57;100624.86;;;9.55;51.36
55687;BME280;41911;52.362;4.978;2023-04-23T02:23:28;100625.82;;;9.44;51.46
55687;BME280;41911;52.362;4.978;2023-04-23T02:23:59;100624.49;;;9.57;51.31
55687;BME280;41911;52.362;4.978;2023-04-23T02:24:30;100625.53;;;9.54;51.40
55687;BME280;41911;52.362;4.978;2023-04-23T02:25:01;100626.38;;;9.40;51.42
55687;BME280;41911;52.362;4.978;2023-04-23T02:25:32;100623.56;;;9.63;51.41
55687;BME280;41911;52.362;4.978;2023-04-23T02:26:03;100626.39;;;9.79;51.46
55687;BME280;41911;52.362;4.978;2023-04-23T02:26:35;100624.24;;;9.63;51.53
55687;BME280;41911;52.362;4.978;2023-04-23T02:27:06;100623.43;;;9.31;51.37
55687;BME280;41911;52.362;4.978;2023-04-23T02:27:37;100623.02;;;9.55;51.33
55687;BME280;41911;52.362;4.978;2023-04-23T02:28:08;100622.80;;;9.31;51.27
55687;BME280;41911;52.362;4.978;2023-04-23T02:28:39;100623.88;;;9.63;51.43
55687;BME280;41911;52.362;4.978;2023-04-23T02:29:10;100622.61;;;9.38;51.42
55687;BME280;41911;52.362;4.978;2023-04-23T02:29:41;100619.81;;;9.99;51.30
55687;BME280;41911;52.362;4.978;2023-04-23T02:30:12;100623.28;;;9.57;51.24
55687;BME280;41911;52.362;4.978;2023-04-23T02:30:43;100623.10;;;9.95;51.27
55687;BME280;41911;52.362;4.978;2023-04-23T02:31:14;100621.85;;;9.61;51.47
55687;BME280;41911;52.362;4.978;2023-04-23T02:31:45;100621.01;;;9.34;51.57
55687;BME280;41911;52.362;4.978;2023-04-23T02:32:19;100623.34;;;9.68;51.37
55687;BME280;41911;52.362;4.978;2023-04-23T02:32:50;100621.98;;;9.40;51.39
55687;BME280;41911;52.362;4.978;2023-04-23T02:33:21;100617.68;;;9.36;51.27
55687;BME280;41911;52.362;4.978;2023-04-23T02:33:52;100619.30;;;9.41;51.26
55687;BME280;41911;52.362;4.978;2023-04-23T02:34:22;100619.27;;;9.57;51.50
55687;BME280;41911;52.362;4.978;2023-04-23T02:34:53;100620.50;;;9.30;51.47
55687;BME280;41911;52.362;4.978;2023-04-23T02:35:25;100620.54;;;9.33;51.29
55687;BME280;41911;52.362;4.978;2023-04-23T02:35:56;100620.66;;;9.32;51.31
55687;BME280;41911;52.362;4.978;2023-04-23T02:36:27;100620.92;;;9.64;51.36
55687;BME280;41911;52.362;4.978;2023-04-23T02:36:58;100619.43;;;9.29;51.26
55687;BME280;41911;52.362;4.978;2023-04-23T02:37:29;100617.63;;;9.58;51.29
55687;BME280;41911;52.362;4.978;2023-04-23T02:38:00;100614.34;;;9.48;51.18
55687;BME280;41911;52.362;4.978;2023-04-23T02:38:31;100614.89;;;9.39;51.17
55687;BME280;41911;52.362;4.978;2023-04-23T02:39:02;100613.28;;;9.37;51.00
55687;BME280;41911;52.362;4.978;2023-04-23T02:39:33;100614.91;;;9.74;51.12
55687;BME280;41911;52.362;4.978;2023-04-23T02:40:05;100617.08;;;9.18;51.17
55687;BME280;41911;52.362;4.978;2023-04-23T02:40:36;100619.06;;;9.24;51.25
55687;BME280;41911;52.362;4.978;2023-04-23T02:41:07;100618.88;;;9.19;51.21
55687;BME280;41911;52.362;4.978;2023-04-23T02:41:38;100616.29;;;9.50;51.14
55687;BME280;41911;52.362;4.978;2023-04-23T02:42:09;100618.16;;;9.40;51.13
55687;BME280;41911;52.362;4.978;2023-04-23T02:42:40;100618.24;;;9.47;51.25
55687;BME280;41911;52.362;4.978;2023-04-23T02:43:11;100619.10;;;9.38;51.25
55687;BME280;41911;52.362;4.978;2023-04-23T02:43:42;100615.62;;;9.39;51.43
55687;BME280;41911;52.362;4.978;2023-04-23T02:44:13;100617.37;;;9.26;51.58
55687;BME280;41911;52.362;4.978;2023-04-23T02:44:45;100618.31;;;9.31;51.45
55687;BME280;41911;52.362;4.978;2023-04-23T02:45:16;100617.10;;;9.56;51.34
55687;BME280;41911;52.362;4.978;2023-04-23T02:45:47;100616.07;;;9.40;51.26
55687;BME280;41911;52.362;4.978;2023-04-23T02:46:18;100616.44;;;9.37;51.30
55687;BME280;41911;52.362;4.978;2023-04-23T02:46:49;100615.75;;;9.58;51.48
55687;BME280;41911;52.362;4.978;2023-04-23T02:47:20;100613.14;;;8.95;51.55
55687;BME280;41911;52.362;4.978;2023-04-23T02:47:51;100611.47;;;9.33;51.44
55687;BME280;41911;52.362;4.978;2023-04-23T02:48:21;100613.51;;;9.27;51.53
55687;BME280;41911;52.362;4.978;2023-04-23T02:48:52;100612.86;;;9.62;51.45
55687;BME280;41911;52.362;4.978;2023-04-23T02:49:23;100609.71;;;9.62;51.52
55687;BME280;41911;52.362;4.978;2023-04-23T02:49:54;100610.42;;;9.13;51.59
55687;BME280;41911;52.362;4.978;2023-04-23T02:50:25;100611.78;;;9.42;51.51
55687;BME280;41911;52.362;4.978;2023-04-23T02:50:57;100610.93;;;9.15;51.49
55687;BME280;41911;52.362;4.978;2023-04-23T02:51:28;100610.30;;;9.80;51.29
55687;BME280;41911;52.362;4.978;2023-04-23T02:51:59;100610.02;;;9.16;51.43